createdAt,value
2022-11-24T00:01:12.211Z,6.21
2022-11-24T00:03:39.409Z,6.23
2022-11-24T00:06:09.289Z,6.24
2022-11-24T00:08:37.678Z,6.29
2022-11-24T00:11:07.453Z,6.33
2022-11-24T00:13:35.247Z,6.38
2022-11-24T00:16:27.399Z,6.40
2022-11-24T00:18:56.378Z,6.42
2022-11-24T00:21:24.902Z,6.44
2022-11-24T00:23:52.974Z,6.41
2022-11-24T00:26:25.033Z,6.43
2022-11-24T00:28:53.727Z,6.40
2022-11-24T00:31:35.488Z,6.38
2022-11-24T00:34:05.327Z,6.39
2022-11-24T00:36:34.274Z,6.35
2022-11-24T00:39:04.219Z,6.34
2022-11-24T00:41:31.534Z,6.36
2022-11-24T00:43:59.412Z,6.39
2022-11-24T00:46:27.594Z,6.42
2022-11-24T00:48:55.094Z,6.39
2022-11-24T00:51:30.406Z,6.36
2022-11-24T00:53:58.717Z,6.34
2022-11-24T00:56:26.834Z,6.31
2022-11-24T00:58:54.059Z,6.29
2022-11-24T01:01:26.348Z,6.23
2022-11-24T01:03:55.450Z,6.22
2022-11-24T01:06:25.160Z,6.20
2022-11-24T01:08:52.834Z,6.14
2022-11-24T01:11:25.761Z,6.14
2022-11-24T01:13:55.528Z,6.12
2022-11-24T01:16:29.946Z,6.10
2022-11-24T01:18:57.363Z,6.08
2022-11-24T01:21:24.709Z,6.07
2022-11-24T01:23:51.683Z,6.07
2022-11-24T01:26:22.950Z,6.05
2022-11-24T01:28:54.131Z,6.04
2022-11-24T01:31:21.228Z,5.99
2022-11-24T01:33:48.256Z,6.01
2022-11-24T01:36:15.165Z,5.99
2022-11-24T01:38:42.137Z,5.95
2022-11-24T01:41:18.431Z,5.94
2022-11-24T01:43:46.312Z,5.90
2022-11-24T01:46:28.346Z,5.90
2022-11-24T01:49:21.067Z,5.88
2022-11-24T01:52:17.062Z,5.86
2022-11-24T01:54:51.949Z,5.90
2022-11-24T01:57:25.245Z,5.90
2022-11-24T01:59:57.468Z,5.93
2022-11-24T02:02:26.330Z,5.96
2022-11-24T02:04:53.874Z,6.02
2022-11-24T02:07:21.097Z,6.05
2022-11-24T02:10:02.034Z,6.09
2022-11-24T02:12:29.134Z,6.12
2022-11-24T02:14:56.898Z,6.17
2022-11-24T02:17:23.898Z,6.23
2022-11-24T02:20:00.664Z,6.25
2022-11-24T02:22:27.604Z,6.29
2022-11-24T02:25:24.125Z,6.34
2022-11-24T02:27:54.063Z,6.37
2022-11-24T02:30:21.470Z,6.43
2022-11-24T02:32:48.389Z,6.46
2022-11-24T02:35:17.354Z,6.51
2022-11-24T02:37:44.335Z,6.47
2022-11-24T02:40:11.645Z,6.49
2022-11-24T02:42:44.529Z,6.50
2022-11-24T02:45:12.502Z,6.52
2022-11-24T02:47:39.371Z,6.51
2022-11-24T02:50:07.097Z,6.50
2022-11-24T02:52:34.237Z,6.52
2022-11-24T02:55:01.169Z,6.53
2022-11-24T02:57:28.157Z,6.54
2022-11-24T02:59:55.092Z,6.50
2022-11-24T03:02:24.741Z,6.51
2022-11-24T03:04:51.704Z,6.54
2022-11-24T03:07:18.805Z,6.56
2022-11-24T03:09:45.915Z,6.58
2022-11-24T03:12:12.807Z,6.60
2022-11-24T03:14:39.672Z,6.60
2022-11-24T03:17:07.229Z,6.61
2022-11-24T03:19:34.225Z,6.61
2022-11-24T03:22:01.212Z,6.62
2022-11-24T03:24:28.216Z,6.66
2022-11-24T03:26:55.123Z,6.67
2022-11-24T03:29:23.084Z,6.69
2022-11-24T03:31:51.250Z,6.70
2022-11-24T03:34:18.298Z,6.70
2022-11-24T03:36:45.150Z,6.70
2022-11-24T03:39:12.227Z,6.71
2022-11-24T03:41:39.099Z,6.71
2022-11-24T03:44:06.090Z,6.67
2022-11-24T03:46:33.529Z,6.66
2022-11-24T03:49:00.561Z,6.65
2022-11-24T03:51:27.515Z,6.64
2022-11-24T03:53:54.487Z,6.65
2022-11-24T03:56:21.420Z,6.65
2022-11-24T03:58:48.335Z,6.64
2022-11-24T04:01:15.328Z,6.64
2022-11-24T04:03:42.292Z,6.63
2022-11-24T04:06:09.264Z,6.65
2022-11-24T04:08:36.176Z,6.64
2022-11-24T04:11:03.136Z,6.64
2022-11-24T04:13:30.128Z,6.65
2022-11-24T04:15:56.988Z,6.64
2022-11-24T04:18:23.908Z,6.65
2022-11-24T04:20:52.040Z,6.68
2022-11-24T04:23:19.510Z,6.68
2022-11-24T04:25:46.265Z,6.68
2022-11-24T04:28:13.097Z,6.65
2022-11-24T04:30:44.828Z,6.67
2022-11-24T04:33:12.493Z,6.67
2022-11-24T04:35:39.278Z,6.66
2022-11-24T04:38:06.148Z,6.65
2022-11-24T04:40:33.051Z,6.65
2022-11-24T04:42:59.824Z,6.65
2022-11-24T04:45:26.588Z,6.66
2022-11-24T04:47:53.413Z,6.67
2022-11-24T04:50:20.942Z,6.67
2022-11-24T04:52:47.898Z,6.66
2022-11-24T04:55:14.663Z,6.69
2022-11-24T04:57:41.536Z,6.71
2022-11-24T05:00:09.270Z,6.72
2022-11-24T05:02:38.932Z,6.71
2022-11-24T05:05:06.672Z,6.72
2022-11-24T05:07:33.573Z,6.71
2022-11-24T05:10:18.889Z,6.72
2022-11-24T05:12:51.029Z,6.74
2022-11-24T05:15:18.217Z,6.73
2022-11-24T05:17:45.124Z,6.74
2022-11-24T05:20:11.996Z,6.73
2022-11-24T05:22:38.801Z,6.72
2022-11-24T05:25:05.942Z,6.70
2022-11-24T05:27:32.765Z,6.66
2022-11-24T05:29:59.542Z,6.64
2022-11-24T05:32:26.471Z,6.60
2022-11-24T05:34:54.707Z,6.60
2022-11-24T05:37:21.942Z,6.59
2022-11-24T05:39:48.755Z,6.57
2022-11-24T05:42:34.019Z,6.55
2022-11-24T05:45:00.913Z,6.54
2022-11-24T05:47:27.718Z,6.52
2022-11-24T05:49:54.599Z,6.49
2022-11-24T05:52:21.662Z,6.46
2022-11-24T05:54:48.562Z,6.43
2022-11-24T05:57:17.268Z,6.40
2022-11-24T05:59:44.324Z,6.40
2022-11-24T06:02:11.466Z,6.40
2022-11-24T06:04:38.622Z,6.40
2022-11-24T06:07:09.089Z,6.40
2022-11-24T06:09:38.049Z,6.43
2022-11-24T06:12:07.336Z,6.42
2022-11-24T06:14:34.873Z,6.42
2022-11-24T06:17:02.360Z,6.43
2022-11-24T06:19:29.456Z,6.43
2022-11-24T06:21:56.442Z,6.39
2022-11-24T06:24:23.624Z,6.40
2022-11-24T06:26:50.447Z,6.43
2022-11-24T06:29:17.297Z,6.43
2022-11-24T06:31:44.237Z,6.43
2022-11-24T06:34:12.885Z,6.39
2022-11-24T06:36:40.186Z,6.40
2022-11-24T06:39:07.580Z,6.42
2022-11-24T06:41:34.540Z,6.42
2022-11-24T06:44:03.983Z,6.42
2022-11-24T06:46:30.998Z,6.40
2022-11-24T06:48:59.825Z,6.42
2022-11-24T06:51:27.400Z,6.40
2022-11-24T06:53:54.573Z,6.40
2022-11-24T06:56:21.961Z,6.40
2022-11-24T06:58:50.923Z,6.37
2022-11-24T07:01:19.880Z,6.32
2022-11-24T07:03:48.255Z,6.32
2022-11-24T07:06:16.082Z,6.30
2022-11-24T07:08:43.027Z,6.27
2022-11-24T07:11:13.489Z,6.28
2022-11-24T07:13:40.384Z,6.27
2022-11-24T07:16:19.490Z,6.29
2022-11-24T07:18:48.258Z,6.29
2022-11-24T07:21:15.838Z,6.29
2022-11-24T07:23:42.696Z,6.28
2022-11-24T07:26:10.763Z,6.29
2022-11-24T07:28:38.115Z,6.31
2022-11-24T07:31:13.654Z,6.33
2022-11-24T07:33:41.174Z,6.35
2022-11-24T07:36:09.359Z,6.35
2022-11-24T07:38:36.579Z,6.36
2022-11-24T07:41:06.484Z,6.35
2022-11-24T07:43:35.407Z,6.36
2022-11-24T07:46:03.340Z,6.38
2022-11-24T07:48:30.282Z,6.39
2022-11-24T07:50:59.709Z,6.43
2022-11-24T07:53:26.906Z,6.43
2022-11-24T07:56:01.996Z,6.44
2022-11-24T07:58:32.907Z,6.45
2022-11-24T08:01:00.823Z,6.46
2022-11-24T08:03:28.022Z,6.48
2022-11-24T08:08:46.543Z,6.51
2022-11-24T08:11:17.091Z,6.52
2022-11-24T08:13:44.238Z,6.54
2022-11-24T08:16:13.753Z,6.59
2022-11-24T08:18:41.427Z,6.61
2022-11-24T08:21:13.086Z,6.66
2022-11-24T08:23:40.440Z,6.69
2022-11-24T08:26:09.339Z,6.71
2022-11-24T08:28:38.154Z,6.74
2022-11-24T08:31:07.735Z,6.77
2022-11-24T08:33:35.001Z,6.78
2022-11-24T08:36:09.546Z,6.77
2022-11-24T08:38:36.983Z,6.79
2022-11-24T08:41:07.183Z,6.81
2022-11-24T08:43:34.158Z,6.86
2022-11-24T08:46:06.926Z,6.92
2022-11-24T08:48:34.263Z,6.96
2022-11-24T08:51:11.819Z,7.00
2022-11-24T08:53:39.818Z,7.01
2022-11-24T08:56:07.805Z,7.03
2022-11-24T08:58:35.391Z,7.02
2022-11-24T09:01:07.359Z,6.99
2022-11-24T09:03:34.815Z,6.95
2022-11-24T09:06:02.536Z,6.90
2022-11-24T09:08:30.748Z,6.86
2022-11-24T09:11:09.960Z,6.82
2022-11-24T09:13:38.176Z,6.83
2022-11-24T09:16:10.332Z,6.86
2022-11-24T09:18:37.838Z,6.91
2022-11-24T09:21:20.087Z,6.91
2022-11-24T09:23:49.258Z,6.92
2022-11-24T09:26:21.455Z,6.93
2022-11-24T09:28:49.386Z,6.96
2022-11-24T09:31:18.128Z,6.99
2022-11-24T09:33:47.119Z,7.02
2022-11-24T09:36:14.821Z,7.06
2022-11-24T09:38:42.027Z,7.11
2022-11-24T09:41:22.311Z,7.13
2022-11-24T09:43:56.587Z,7.17
2022-11-24T09:46:28.663Z,7.19
2022-11-24T09:48:58.027Z,7.19
2022-11-24T09:51:31.672Z,7.27
2022-11-24T09:54:06.041Z,7.30
2022-11-24T09:56:35.774Z,7.32
2022-11-24T09:59:10.776Z,7.36
2022-11-24T10:01:42.068Z,7.43
2022-11-24T10:04:25.347Z,7.46
2022-11-24T10:07:09.679Z,7.48
2022-11-24T10:09:51.893Z,7.53
2022-11-24T10:12:36.852Z,7.59
2022-11-24T10:15:15.754Z,7.62
2022-11-24T10:17:54.697Z,7.67
2022-11-24T10:21:03.155Z,7.70
2022-11-24T10:24:02.125Z,7.76
2022-11-24T10:26:37.436Z,7.75
2022-11-24T10:29:31.061Z,7.77
2022-11-24T10:31:58.188Z,7.75
2022-11-24T10:34:32.797Z,7.76
2022-11-24T10:37:14.309Z,7.83
2022-11-24T10:39:44.109Z,7.93
2022-11-24T10:42:15.810Z,8.00
2022-11-24T10:44:43.288Z,8.09
2022-11-24T10:47:19.499Z,8.12
2022-11-24T10:50:36.463Z,8.17
2022-11-24T10:53:25.913Z,8.22
2022-11-24T10:55:56.003Z,8.27
2022-11-24T10:58:36.078Z,8.29
2022-11-24T11:01:13.477Z,8.34
2022-11-24T11:03:48.100Z,8.37
2022-11-24T11:06:29.726Z,8.34
2022-11-24T11:09:10.794Z,8.39
2022-11-24T11:11:40.181Z,8.48
2022-11-24T11:14:10.266Z,8.57
2022-11-24T11:16:54.818Z,8.55
2022-11-24T11:19:49.819Z,8.56
2022-11-24T11:22:35.322Z,8.57
2022-11-24T11:25:18.281Z,8.59
2022-11-24T11:27:45.624Z,8.63
2022-11-24T11:36:14.405Z,8.69
2022-11-24T11:38:46.221Z,8.72
2022-11-24T11:41:24.512Z,8.77
2022-11-24T11:44:05.114Z,8.83
2022-11-24T11:46:34.037Z,8.89
2022-11-24T11:49:01.373Z,8.93
2022-11-24T11:51:52.566Z,8.98
2022-11-24T11:54:25.698Z,9.04
2022-11-24T11:57:15.929Z,9.07
2022-11-24T11:59:45.766Z,9.11
2022-11-24T12:02:34.605Z,9.11
2022-11-24T12:05:27.654Z,9.12
2022-11-24T12:08:23.647Z,9.17
2022-11-24T12:11:01.897Z,9.18
2022-11-24T12:13:56.501Z,9.23
2022-11-24T12:16:55.760Z,9.31
2022-11-24T12:19:31.543Z,9.38
2022-11-24T12:22:20.479Z,9.48
2022-11-24T12:25:00.776Z,9.51
2022-11-24T12:27:47.512Z,9.56
2022-11-24T12:30:19.777Z,9.64
2022-11-24T12:33:31.573Z,9.67
2022-11-24T12:36:10.916Z,9.72
2022-11-24T12:38:44.364Z,9.76
2022-11-24T12:41:42.950Z,9.83
2022-11-24T12:44:22.202Z,9.85
2022-11-24T12:47:24.346Z,9.86
2022-11-24T12:50:12.102Z,9.90
2022-11-24T12:52:54.112Z,9.92
2022-11-24T12:55:25.671Z,9.92
2022-11-24T12:58:18.383Z,9.98
2022-11-24T13:01:22.756Z,10.03
2022-11-24T13:04:07.805Z,10.10
2022-11-24T13:07:00.118Z,10.13
2022-11-24T13:09:26.946Z,10.16
2022-11-24T13:12:08.476Z,10.18
2022-11-24T13:14:38.212Z,10.13
2022-11-24T13:17:38.338Z,9.99
2022-11-24T13:20:33.517Z,9.96
2022-11-24T13:23:05.780Z,9.96
2022-11-24T13:25:36.159Z,9.92
2022-11-24T13:28:06.741Z,9.94
2022-11-24T13:30:33.466Z,9.90
2022-11-24T13:33:03.890Z,9.87
2022-11-24T13:35:31.048Z,9.83
2022-11-24T13:37:57.946Z,9.78
2022-11-24T13:40:26.525Z,9.74
2022-11-24T13:42:57.661Z,9.72
2022-11-24T13:45:40.318Z,9.67
2022-11-24T13:48:14.035Z,9.63
2022-11-24T13:50:50.184Z,9.58
2022-11-24T13:53:45.437Z,9.55
2022-11-24T13:56:12.185Z,9.54
2022-11-24T13:58:50.492Z,9.49
2022-11-24T14:01:26.439Z,9.46
2022-11-24T14:04:32.089Z,9.43
2022-11-24T14:07:14.710Z,9.37
2022-11-24T14:09:41.679Z,9.35
2022-11-24T14:12:26.368Z,9.32
2022-11-24T14:14:57.416Z,9.31
2022-11-24T14:17:28.626Z,9.29
2022-11-24T14:19:57.832Z,9.27
2022-11-24T14:22:32.925Z,9.23
2022-11-24T14:25:01.761Z,9.17
2022-11-24T14:27:39.241Z,9.16
2022-11-24T14:30:20.862Z,9.10
2022-11-24T14:32:59.615Z,9.07
2022-11-24T14:35:26.747Z,8.98
2022-11-24T14:37:53.800Z,8.91
2022-11-24T14:40:55.228Z,8.87
2022-11-24T14:43:32.942Z,8.78
2022-11-24T14:46:02.318Z,8.73
2022-11-24T14:48:38.422Z,8.67
2022-11-24T14:51:13.722Z,8.61
2022-11-24T14:53:45.827Z,8.53
2022-11-24T14:56:34.694Z,8.45
2022-11-24T14:59:02.629Z,8.40
2022-11-24T15:01:33.050Z,8.34
2022-11-24T15:04:46.712Z,8.27
2022-11-24T15:07:13.895Z,8.19
2022-11-24T15:09:43.683Z,8.14
2022-11-24T15:12:23.479Z,8.10
2022-11-24T15:14:52.225Z,8.02
2022-11-24T15:17:23.814Z,7.95
2022-11-24T15:20:09.872Z,7.88
2022-11-24T15:22:40.305Z,7.84
2022-11-24T15:25:30.116Z,7.80
2022-11-24T15:27:57.639Z,7.72
2022-11-24T15:30:25.013Z,7.69
2022-11-24T15:32:57.334Z,7.64
2022-11-24T15:35:26.698Z,7.59
2022-11-24T15:37:53.754Z,7.54
2022-11-24T15:40:20.763Z,7.50
2022-11-24T15:42:55.621Z,7.45
2022-11-24T15:45:24.892Z,7.40
2022-11-24T15:47:51.720Z,7.34
2022-11-24T15:50:19.849Z,7.30
2022-11-24T15:52:47.730Z,7.25
2022-11-24T15:55:20.274Z,7.19
2022-11-24T15:57:48.226Z,7.11
2022-11-24T16:00:20.360Z,7.07
2022-11-24T16:02:47.356Z,7.06
2022-11-24T16:05:15.131Z,6.99
2022-11-24T16:07:42.488Z,6.94
2022-11-24T16:10:25.308Z,6.93
2022-11-24T16:12:52.219Z,6.92
2022-11-24T16:15:18.962Z,6.91
2022-11-24T16:17:45.767Z,6.87
2022-11-24T16:20:12.865Z,6.82
2022-11-24T16:22:39.911Z,6.82
2022-11-24T16:25:08.494Z,6.79
2022-11-24T16:27:35.353Z,6.77
2022-11-24T16:30:02.416Z,6.74
2022-11-24T16:32:29.310Z,6.72
2022-11-24T16:34:56.194Z,6.70
2022-11-24T16:37:23.356Z,6.68
2022-11-24T16:39:50.785Z,6.63
2022-11-24T16:42:17.808Z,6.60
2022-11-24T16:44:44.778Z,6.60
2022-11-24T16:47:13.207Z,6.56
2022-11-24T16:49:40.183Z,6.56
2022-11-24T16:52:08.660Z,6.53
2022-11-24T16:54:37.094Z,6.55
2022-11-24T16:57:04.205Z,6.53
2022-11-24T16:59:31.162Z,6.50
2022-11-24T17:01:57.971Z,6.48
2022-11-24T17:04:25.972Z,6.44
2022-11-24T17:06:52.768Z,6.40
2022-11-24T17:09:19.640Z,6.38
2022-11-24T17:11:46.691Z,6.36
2022-11-24T17:14:14.829Z,6.35
2022-11-24T17:16:41.852Z,6.35
2022-11-24T17:19:08.917Z,6.35
2022-11-24T17:21:35.859Z,6.33
2022-11-24T17:24:06.927Z,6.35
2022-11-24T17:26:34.081Z,6.38
2022-11-24T17:29:01.129Z,6.39
2022-11-24T17:31:32.293Z,6.42
2022-11-24T17:34:00.622Z,6.45
2022-11-24T17:36:29.606Z,6.48
2022-11-24T17:38:56.906Z,6.50
2022-11-24T17:41:23.833Z,6.51
2022-11-24T17:43:51.859Z,6.51
2022-11-24T17:46:19.405Z,6.51
2022-11-24T17:48:47.152Z,6.52
2022-11-24T17:51:16.528Z,6.49
2022-11-24T17:53:46.146Z,6.45
2022-11-24T17:56:18.803Z,6.43
2022-11-24T17:58:45.723Z,6.42
2022-11-24T18:01:13.703Z,6.42
2022-11-24T18:03:41.421Z,6.40
2022-11-24T18:06:13.585Z,6.45
2022-11-24T18:08:42.800Z,6.46
2022-11-24T18:11:24.673Z,6.47
2022-11-24T18:14:00.773Z,6.46
2022-11-24T18:16:30.558Z,6.49
2022-11-24T18:19:11.024Z,6.50
2022-11-24T18:21:42.387Z,6.51
2022-11-24T18:24:10.694Z,6.54
2022-11-24T18:26:38.391Z,6.55
2022-11-24T18:29:05.447Z,6.55
2022-11-24T18:31:34.474Z,6.57
2022-11-24T18:34:02.720Z,6.59
2022-11-24T18:36:30.800Z,6.58
2022-11-24T18:39:02.401Z,6.58
2022-11-24T18:41:29.319Z,6.60
2022-11-24T18:43:56.158Z,6.60
2022-11-24T18:46:23.192Z,6.58
2022-11-24T18:48:52.198Z,6.58
2022-11-24T18:51:19.588Z,6.56
2022-11-24T18:53:50.715Z,6.55
2022-11-24T18:56:18.133Z,6.52
2022-11-24T18:58:45.548Z,6.51
2022-11-24T19:01:17.956Z,6.51
2022-11-24T19:03:50.475Z,6.49
2022-11-24T19:06:20.223Z,6.45
2022-11-24T19:08:49.093Z,6.42
2022-11-24T19:11:18.158Z,6.37
2022-11-24T19:13:45.318Z,6.36
2022-11-24T19:16:13.087Z,6.33
2022-11-24T19:18:40.163Z,6.31
2022-11-24T19:21:07.359Z,6.30
2022-11-24T19:23:34.917Z,6.28
2022-11-24T19:26:02.933Z,6.29
2022-11-24T19:28:30.153Z,6.31
2022-11-24T19:31:01.627Z,6.29
2022-11-24T19:33:28.496Z,6.26
2022-11-24T19:36:14.945Z,6.25
2022-11-24T19:38:43.418Z,6.22
2022-11-24T19:41:12.721Z,6.23
2022-11-24T19:43:40.835Z,6.23
2022-11-24T19:46:10.222Z,6.20
2022-11-24T19:48:50.270Z,6.15
2022-11-24T19:51:30.633Z,6.15
2022-11-24T19:53:58.388Z,6.17
2022-11-24T19:56:27.707Z,6.17
2022-11-24T19:58:56.116Z,6.16
2022-11-24T20:01:27.262Z,6.15
2022-11-24T20:04:01.534Z,6.13
2022-11-24T20:06:31.330Z,6.14
2022-11-24T20:09:00.671Z,6.11
2022-11-24T20:11:28.835Z,6.13
2022-11-24T20:13:56.789Z,6.12
2022-11-24T20:16:30.050Z,6.11
2022-11-24T20:19:02.333Z,6.11
2022-11-24T20:21:33.025Z,6.10
2022-11-24T20:24:06.206Z,6.12
2022-11-24T20:26:35.902Z,6.11
2022-11-24T20:29:04.143Z,6.10
2022-11-24T20:31:34.149Z,6.09
2022-11-24T20:34:02.775Z,6.09
2022-11-24T20:36:31.335Z,6.11
2022-11-24T20:39:00.861Z,6.12
2022-11-24T20:41:30.519Z,6.14
2022-11-24T20:44:00.968Z,6.19
2022-11-24T20:46:30.798Z,6.20
2022-11-24T20:48:58.319Z,6.22
2022-11-24T20:51:31.704Z,6.22
2022-11-24T20:54:01.437Z,6.24
2022-11-24T20:56:31.168Z,6.30
2022-11-24T20:58:59.363Z,6.33
2022-11-24T21:01:29.787Z,6.39
2022-11-24T21:03:59.024Z,6.43
2022-11-24T21:06:28.404Z,6.46
2022-11-24T21:09:01.965Z,6.44
2022-11-24T21:11:31.368Z,6.43
2022-11-24T21:13:58.781Z,6.40
2022-11-24T21:16:28.798Z,6.45
2022-11-24T21:19:01.522Z,6.47
2022-11-24T21:21:34.187Z,6.52
2022-11-24T21:24:02.845Z,6.56
2022-11-24T21:26:30.082Z,6.60
2022-11-24T21:28:57.554Z,6.59
2022-11-24T21:31:24.563Z,6.61
2022-11-24T21:33:53.465Z,6.62
2022-11-24T21:36:25.369Z,6.62
2022-11-24T21:38:57.214Z,6.65
2022-11-24T21:41:26.729Z,6.66
2022-11-24T21:43:56.093Z,6.68
2022-11-24T21:46:23.747Z,6.66
2022-11-24T21:48:51.132Z,6.64
2022-11-24T21:51:20.417Z,6.62
2022-11-24T21:53:47.795Z,6.64
2022-11-24T21:56:17.599Z,6.65
2022-11-24T21:58:46.035Z,6.65
2022-11-24T22:01:13.788Z,6.64
2022-11-24T22:03:40.958Z,6.64
2022-11-24T22:06:08.513Z,6.67
2022-11-24T22:08:35.950Z,6.67
2022-11-24T22:11:08.641Z,6.68
2022-11-24T22:13:35.909Z,6.70
2022-11-24T22:16:07.835Z,6.71
2022-11-24T22:18:36.925Z,6.75
2022-11-24T22:21:05.003Z,6.77
2022-11-24T22:23:33.174Z,6.77
2022-11-24T22:26:17.481Z,6.79
2022-11-24T22:28:45.430Z,6.80
2022-11-24T22:31:19.448Z,6.78
2022-11-24T22:33:48.583Z,6.79
2022-11-24T22:36:17.183Z,6.81
2022-11-24T22:38:44.429Z,6.85
2022-11-24T22:41:14.419Z,6.83
2022-11-24T22:43:42.868Z,6.88
2022-11-24T22:46:21.501Z,6.86
2022-11-24T22:48:49.936Z,6.89
2022-11-24T22:51:19.425Z,6.87
2022-11-24T22:53:55.317Z,6.86
2022-11-24T22:56:23.086Z,6.88
2022-11-24T22:58:50.875Z,6.86
2022-11-24T23:01:23.366Z,6.88
2022-11-24T23:03:53.833Z,6.90
2022-11-24T23:06:23.274Z,6.91
2022-11-24T23:08:51.023Z,6.91
2022-11-24T23:11:36.403Z,6.91
2022-11-24T23:14:06.813Z,6.90
2022-11-24T23:16:33.707Z,6.89
2022-11-24T23:19:00.658Z,6.91
2022-11-24T23:21:32.152Z,6.90
2022-11-24T23:24:01.300Z,6.90
2022-11-24T23:26:30.469Z,6.90
2022-11-24T23:28:57.388Z,6.91
2022-11-24T23:31:29.770Z,6.92
2022-11-24T23:34:02.180Z,6.92
2022-11-24T23:36:30.157Z,6.92
2022-11-24T23:39:01.745Z,6.92
2022-11-24T23:41:30.889Z,6.94
2022-11-24T23:43:58.139Z,6.91
2022-11-24T23:46:26.871Z,6.95
2022-11-24T23:48:54.955Z,6.96
2022-11-24T23:51:30.167Z,6.96
2022-11-24T23:53:58.350Z,6.92
2022-11-24T23:56:30.803Z,6.92
